sensor_id;sensor_type;location;lat;lon;timestamp;P1;P2;P0
47079;PMS5003;33067;49.296;14.470;2024-03-06T00:01:24;70;66;
47079;PMS5003;33067;49.296;14.470;2024-03-06T00:03:49;74;69;
47079;PMS5003;33067;49.296;14.470;2024-03-06T00:06:15;82;67;
47079;PMS5003;33067;49.296;14.470;2024-03-06T00:08:40;87;77;
47079;PMS5003;33067;49.296;14.470;2024-03-06T00:11:06;79;73;
47079;PMS5003;33067;49.296;14.470;2024-03-06T00:13:31;83;70;
47079;PMS5003;33067;49.296;14.470;2024-03-06T00:15:56;85;73;
47079;PMS5003;33067;49.296;14.470;2024-03-06T00:18:22;82;71;
47079;PMS5003;33067;49.296;14.470;2024-03-06T00:20:47;90;71;
47079;PMS5003;33067;49.296;14.470;2024-03-06T00:23:13;74;69;
47079;PMS5003;33067;49.296;14.470;2024-03-06T00:25:39;74;67;
47079;PMS5003;33067;49.296;14.470;2024-03-06T00:28:04;68;59;
47079;PMS5003;33067;49.296;14.470;2024-03-06T00:30:30;75;64;
47079;PMS5003;33067;49.296;14.470;2024-03-06T00:32:55;61;59;
47079;PMS5003;33067;49.296;14.470;2024-03-06T00:35:21;63;52;
47079;PMS5003;33067;49.296;14.470;2024-03-06T00:37:47;65;56;
47079;PMS5003;33067;49.296;14.470;2024-03-06T00:40:13;73;64;
47079;PMS5003;33067;49.296;14.470;2024-03-06T00:42:38;56;54;
47079;PMS5003;33067;49.296;14.470;2024-03-06T00:45:05;66;59;
47079;PMS5003;33067;49.296;14.470;2024-03-06T00:47:29;68;59;
47079;PMS5003;33067;49.296;14.470;2024-03-06T00:49:54;60;56;
47079;PMS5003;33067;49.296;14.470;2024-03-06T00:52:20;62;54;
47079;PMS5003;33067;49.296;14.470;2024-03-06T00:54:46;70;63;
47079;PMS5003;33067;49.296;14.470;2024-03-06T00:57:12;64;54;
47079;PMS5003;33067;49.296;14.470;2024-03-06T00:59:37;66;60;
47079;PMS5003;33067;49.296;14.470;2024-03-06T01:02:03;69;64;
47079;PMS5003;33067;49.296;14.470;2024-03-06T01:04:28;75;67;
47079;PMS5003;33067;49.296;14.470;2024-03-06T01:06:54;65;57;
47079;PMS5003;33067;49.296;14.470;2024-03-06T01:09:19;81;68;
47079;PMS5003;33067;49.296;14.470;2024-03-06T01:11:45;75;65;
47079;PMS5003;33067;49.296;14.470;2024-03-06T01:14:10;83;65;
47079;PMS5003;33067;49.296;14.470;2024-03-06T01:16:35;84;74;
47079;PMS5003;33067;49.296;14.470;2024-03-06T01:19:00;66;63;
47079;PMS5003;33067;49.296;14.470;2024-03-06T01:21:26;79;66;
47079;PMS5003;33067;49.296;14.470;2024-03-06T01:23:51;76;70;
47079;PMS5003;33067;49.296;14.470;2024-03-06T01:26:16;73;66;
47079;PMS5003;33067;49.296;14.470;2024-03-06T01:28:42;67;60;
47079;PMS5003;33067;49.296;14.470;2024-03-06T01:31:07;71;61;
47079;PMS5003;33067;49.296;14.470;2024-03-06T01:33:33;60;55;
47079;PMS5003;33067;49.296;14.470;2024-03-06T01:35:58;71;61;
47079;PMS5003;33067;49.296;14.470;2024-03-06T01:38:24;54;51;
47079;PMS5003;33067;49.296;14.470;2024-03-06T01:40:49;63;55;
47079;PMS5003;33067;49.296;14.470;2024-03-06T01:43:20;60;57;
47079;PMS5003;33067;49.296;14.470;2024-03-06T01:45:40;66;57;
47079;PMS5003;33067;49.296;14.470;2024-03-06T01:48:06;70;66;
47079;PMS5003;33067;49.296;14.470;2024-03-06T01:50:31;64;60;
47079;PMS5003;33067;49.296;14.470;2024-03-06T01:52:57;67;60;
47079;PMS5003;33067;49.296;14.470;2024-03-06T01:55:22;71;63;
47079;PMS5003;33067;49.296;14.470;2024-03-06T01:57:47;80;68;
47079;PMS5003;33067;49.296;14.470;2024-03-06T02:00:13;73;61;
47079;PMS5003;33067;49.296;14.470;2024-03-06T02:02:40;70;65;
47079;PMS5003;33067;49.296;14.470;2024-03-06T02:05:04;75;66;
47079;PMS5003;33067;49.296;14.470;2024-03-06T02:07:30;71;61;
47079;PMS5003;33067;49.296;14.470;2024-03-06T02:09:55;71;65;
47079;PMS5003;33067;49.296;14.470;2024-03-06T02:12:20;71;65;
47079;PMS5003;33067;49.296;14.470;2024-03-06T02:14:46;75;66;
47079;PMS5003;33067;49.296;14.470;2024-03-06T02:17:12;73;63;
47079;PMS5003;33067;49.296;14.470;2024-03-06T02:19:38;66;64;
47079;PMS5003;33067;49.296;14.470;2024-03-06T02:22:02;70;68;
47079;PMS5003;33067;49.296;14.470;2024-03-06T02:24:28;69;67;
47079;PMS5003;33067;49.296;14.470;2024-03-06T02:26:54;77;69;
47079;PMS5003;33067;49.296;14.470;2024-03-06T02:29:19;79;68;
47079;PMS5003;33067;49.296;14.470;2024-03-06T02:31:44;75;68;
47079;PMS5003;33067;49.296;14.470;2024-03-06T02:34:10;69;57;
47079;PMS5003;33067;49.296;14.470;2024-03-06T02:36:36;66;63;
47079;PMS5003;33067;49.296;14.470;2024-03-06T02:39:01;75;65;
47079;PMS5003;33067;49.296;14.470;2024-03-06T02:41:26;69;61;
47079;PMS5003;33067;49.296;14.470;2024-03-06T02:43:51;67;56;
47079;PMS5003;33067;49.296;14.470;2024-03-06T02:46:16;63;58;
47079;PMS5003;33067;49.296;14.470;2024-03-06T02:48:42;58;48;
47079;PMS5003;33067;49.296;14.470;2024-03-06T02:51:08;59;58;
47079;PMS5003;33067;49.296;14.470;2024-03-06T02:53:33;58;54;
47079;PMS5003;33067;49.296;14.470;2024-03-06T02:55:58;60;57;
47079;PMS5003;33067;49.296;14.470;2024-03-06T02:58:23;73;64;
47079;PMS5003;33067;49.296;14.470;2024-03-06T03:00:49;69;64;
47079;PMS5003;33067;49.296;14.470;2024-03-06T03:03:14;68;63;
47079;PMS5003;33067;49.296;14.470;2024-03-06T03:05:40;69;66;
47079;PMS5003;33067;49.296;14.470;2024-03-06T03:08:06;72;65;
47079;PMS5003;33067;49.296;14.470;2024-03-06T03:13:00;78;68;
47079;PMS5003;33067;49.296;14.470;2024-03-06T03:15:25;72;63;
47079;PMS5003;33067;49.296;14.470;2024-03-06T03:17:51;74;59;
47079;PMS5003;33067;49.296;14.470;2024-03-06T03:20:16;64;52;
47079;PMS5003;33067;49.296;14.470;2024-03-06T03:22:42;54;47;
47079;PMS5003;33067;49.296;14.470;2024-03-06T03:25:08;53;46;
47079;PMS5003;33067;49.296;14.470;2024-03-06T03:27:33;65;54;
47079;PMS5003;33067;49.296;14.470;2024-03-06T03:29:58;67;57;
47079;PMS5003;33067;49.296;14.470;2024-03-06T03:32:23;67;60;
47079;PMS5003;33067;49.296;14.470;2024-03-06T03:34:49;56;52;
47079;PMS5003;33067;49.296;14.470;2024-03-06T03:37:15;50;48;
47079;PMS5003;33067;49.296;14.470;2024-03-06T03:39:40;58;50;
47079;PMS5003;33067;49.296;14.470;2024-03-06T03:42:06;49;47;
47079;PMS5003;33067;49.296;14.470;2024-03-06T03:44:31;53;46;
47079;PMS5003;33067;49.296;14.470;2024-03-06T03:46:56;57;51;
47079;PMS5003;33067;49.296;14.470;2024-03-06T03:49:22;65;57;
47079;PMS5003;33067;49.296;14.470;2024-03-06T03:51:48;60;52;
47079;PMS5003;33067;49.296;14.470;2024-03-06T03:54:14;54;45;
47079;PMS5003;33067;49.296;14.470;2024-03-06T03:56:39;64;51;
47079;PMS5003;33067;49.296;14.470;2024-03-06T03:59:04;57;51;
47079;PMS5003;33067;49.296;14.470;2024-03-06T04:01:30;60;53;
47079;PMS5003;33067;49.296;14.470;2024-03-06T04:03:55;54;49;
47079;PMS5003;33067;49.296;14.470;2024-03-06T04:06:20;52;43;
47079;PMS5003;33067;49.296;14.470;2024-03-06T04:08:46;55;49;
47079;PMS5003;33067;49.296;14.470;2024-03-06T04:11:11;63;52;
47079;PMS5003;33067;49.296;14.470;2024-03-06T04:13:37;63;53;
47079;PMS5003;33067;49.296;14.470;2024-03-06T04:16:02;52;48;
47079;PMS5003;33067;49.296;14.470;2024-03-06T04:18:28;60;51;
47079;PMS5003;33067;49.296;14.470;2024-03-06T04:20:53;60;54;
47079;PMS5003;33067;49.296;14.470;2024-03-06T04:23:19;63;56;
47079;PMS5003;33067;49.296;14.470;2024-03-06T04:25:44;50;46;
47079;PMS5003;33067;49.296;14.470;2024-03-06T04:28:09;51;47;
47079;PMS5003;33067;49.296;14.470;2024-03-06T04:30:34;44;43;
47079;PMS5003;33067;49.296;14.470;2024-03-06T04:33:00;49;44;
47079;PMS5003;33067;49.296;14.470;2024-03-06T04:35:26;64;54;
47079;PMS5003;33067;49.296;14.470;2024-03-06T04:37:51;51;46;
47079;PMS5003;33067;49.296;14.470;2024-03-06T04:40:17;54;48;
47079;PMS5003;33067;49.296;14.470;2024-03-06T04:42:42;55;48;
47079;PMS5003;33067;49.296;14.470;2024-03-06T04:45:10;59;54;
47079;PMS5003;33067;49.296;14.470;2024-03-06T04:47:34;64;55;
47079;PMS5003;33067;49.296;14.470;2024-03-06T04:49:59;70;63;
47079;PMS5003;33067;49.296;14.470;2024-03-06T04:52:24;67;60;
47079;PMS5003;33067;49.296;14.470;2024-03-06T04:54:49;63;52;
47079;PMS5003;33067;49.296;14.470;2024-03-06T04:57:15;74;61;
47079;PMS5003;33067;49.296;14.470;2024-03-06T04:59:40;58;53;
47079;PMS5003;33067;49.296;14.470;2024-03-06T05:02:05;59;51;
47079;PMS5003;33067;49.296;14.470;2024-03-06T05:04:31;58;56;
47079;PMS5003;33067;49.296;14.470;2024-03-06T05:06:57;58;54;
47079;PMS5003;33067;49.296;14.470;2024-03-06T05:09:22;64;58;
47079;PMS5003;33067;49.296;14.470;2024-03-06T05:11:48;62;56;
47079;PMS5003;33067;49.296;14.470;2024-03-06T05:14:13;57;52;
47079;PMS5003;33067;49.296;14.470;2024-03-06T05:16:38;67;55;
47079;PMS5003;33067;49.296;14.470;2024-03-06T05:19:04;60;52;
47079;PMS5003;33067;49.296;14.470;2024-03-06T05:21:29;67;60;
47079;PMS5003;33067;49.296;14.470;2024-03-06T05:23:54;61;57;
47079;PMS5003;33067;49.296;14.470;2024-03-06T05:26:19;64;53;
47079;PMS5003;33067;49.296;14.470;2024-03-06T05:28:45;61;54;
47079;PMS5003;33067;49.296;14.470;2024-03-06T05:31:15;58;49;
47079;PMS5003;33067;49.296;14.470;2024-03-06T05:33:36;69;58;
47079;PMS5003;33067;49.296;14.470;2024-03-06T05:36:01;60;51;
47079;PMS5003;33067;49.296;14.470;2024-03-06T05:38:27;57;51;
47079;PMS5003;33067;49.296;14.470;2024-03-06T05:40:52;56;49;
47079;PMS5003;33067;49.296;14.470;2024-03-06T05:43:18;58;50;
47079;PMS5003;33067;49.296;14.470;2024-03-06T05:45:43;60;52;
47079;PMS5003;33067;49.296;14.470;2024-03-06T05:48:09;65;54;
47079;PMS5003;33067;49.296;14.470;2024-03-06T05:50:35;53;53;
47079;PMS5003;33067;49.296;14.470;2024-03-06T05:53:00;54;51;
47079;PMS5003;33067;49.296;14.470;2024-03-06T05:55:25;59;57;
47079;PMS5003;33067;49.296;14.470;2024-03-06T05:57:50;48;44;
47079;PMS5003;33067;49.296;14.470;2024-03-06T06:00:16;70;63;
47079;PMS5003;33067;49.296;14.470;2024-03-06T06:02:41;58;55;
47079;PMS5003;33067;49.296;14.470;2024-03-06T06:05:07;77;65;
47079;PMS5003;33067;49.296;14.470;2024-03-06T06:07:32;78;72;
47079;PMS5003;33067;49.296;14.470;2024-03-06T06:09:57;71;63;
47079;PMS5003;33067;49.296;14.470;2024-03-06T06:12:23;59;55;
47079;PMS5003;33067;49.296;14.470;2024-03-06T06:14:49;63;54;
47079;PMS5003;33067;49.296;14.470;2024-03-06T06:17:13;54;49;
47079;PMS5003;33067;49.296;14.470;2024-03-06T06:19:41;58;55;
47079;PMS5003;33067;49.296;14.470;2024-03-06T06:22:04;64;57;
47079;PMS5003;33067;49.296;14.470;2024-03-06T06:24:29;67;57;
47079;PMS5003;33067;49.296;14.470;2024-03-06T06:26:55;57;56;
47079;PMS5003;33067;49.296;14.470;2024-03-06T06:29:20;72;61;
47079;PMS5003;33067;49.296;14.470;2024-03-06T06:31:45;57;46;
47079;PMS5003;33067;49.296;14.470;2024-03-06T06:34:11;56;54;
47079;PMS5003;33067;49.296;14.470;2024-03-06T06:36:36;61;50;
47079;PMS5003;33067;49.296;14.470;2024-03-06T06:39:02;64;53;
47079;PMS5003;33067;49.296;14.470;2024-03-06T06:41:27;60;52;
47079;PMS5003;33067;49.296;14.470;2024-03-06T06:43:53;59;53;
47079;PMS5003;33067;49.296;14.470;2024-03-06T06:46:18;55;50;
47079;PMS5003;33067;49.296;14.470;2024-03-06T06:48:43;58;54;
47079;PMS5003;33067;49.296;14.470;2024-03-06T06:51:09;57;53;
47079;PMS5003;33067;49.296;14.470;2024-03-06T06:53:34;56;50;
47079;PMS5003;33067;49.296;14.470;2024-03-06T06:56:00;59;48;
47079;PMS5003;33067;49.296;14.470;2024-03-06T06:58:25;57;51;
47079;PMS5003;33067;49.296;14.470;2024-03-06T07:00:51;58;48;
47079;PMS5003;33067;49.296;14.470;2024-03-06T07:03:16;64;57;
47079;PMS5003;33067;49.296;14.470;2024-03-06T07:05:41;56;49;
47079;PMS5003;33067;49.296;14.470;2024-03-06T07:08:06;60;56;
47079;PMS5003;33067;49.296;14.470;2024-03-06T07:10:32;54;47;
47079;PMS5003;33067;49.296;14.470;2024-03-06T07:12:58;57;50;
47079;PMS5003;33067;49.296;14.470;2024-03-06T07:15:23;56;46;
47079;PMS5003;33067;49.296;14.470;2024-03-06T07:17:49;51;50;
47079;PMS5003;33067;49.296;14.470;2024-03-06T07:20:13;54;48;
47079;PMS5003;33067;49.296;14.470;2024-03-06T07:22:38;74;62;
47079;PMS5003;33067;49.296;14.470;2024-03-06T07:25:04;67;59;
47079;PMS5003;33067;49.296;14.470;2024-03-06T07:27:30;61;57;
47079;PMS5003;33067;49.296;14.470;2024-03-06T07:29:55;60;55;
47079;PMS5003;33067;49.296;14.470;2024-03-06T07:32:21;59;49;
47079;PMS5003;33067;49.296;14.470;2024-03-06T07:34:46;47;47;
47079;PMS5003;33067;49.296;14.470;2024-03-06T07:37:12;55;48;
47079;PMS5003;33067;49.296;14.470;2024-03-06T07:39:37;57;53;
47079;PMS5003;33067;49.296;14.470;2024-03-06T07:42:03;60;56;
47079;PMS5003;33067;49.296;14.470;2024-03-06T07:44:28;67;60;
47079;PMS5003;33067;49.296;14.470;2024-03-06T07:46:54;65;61;
47079;PMS5003;33067;49.296;14.470;2024-03-06T07:49:20;69;62;
47079;PMS5003;33067;49.296;14.470;2024-03-06T07:51:45;61;54;
47079;PMS5003;33067;49.296;14.470;2024-03-06T07:54:11;47;42;
47079;PMS5003;33067;49.296;14.470;2024-03-06T07:56:36;66;56;
47079;PMS5003;33067;49.296;14.470;2024-03-06T07:59:01;60;50;
47079;PMS5003;33067;49.296;14.470;2024-03-06T08:01:26;55;46;
47079;PMS5003;33067;49.296;14.470;2024-03-06T08:03:52;51;48;
47079;PMS5003;33067;49.296;14.470;2024-03-06T08:06:18;74;63;
47079;PMS5003;33067;49.296;14.470;2024-03-06T08:08:42;47;43;
47079;PMS5003;33067;49.296;14.470;2024-03-06T08:11:07;52;48;
47079;PMS5003;33067;49.296;14.470;2024-03-06T08:13:33;56;49;
47079;PMS5003;33067;49.296;14.470;2024-03-06T08:15:59;49;41;
47079;PMS5003;33067;49.296;14.470;2024-03-06T08:18:24;54;48;
47079;PMS5003;33067;49.296;14.470;2024-03-06T08:20:50;47;44;
47079;PMS5003;33067;49.296;14.470;2024-03-06T08:23:15;56;51;
47079;PMS5003;33067;49.296;14.470;2024-03-06T08:25:41;57;51;
47079;PMS5003;33067;49.296;14.470;2024-03-06T08:28:06;60;52;
47079;PMS5003;33067;49.296;14.470;2024-03-06T08:30:32;53;48;
47079;PMS5003;33067;49.296;14.470;2024-03-06T08:32:57;60;54;
47079;PMS5003;33067;49.296;14.470;2024-03-06T08:35:22;60;53;
47079;PMS5003;33067;49.296;14.470;2024-03-06T08:37:47;47;42;
47079;PMS5003;33067;49.296;14.470;2024-03-06T08:40:12;47;43;
47079;PMS5003;33067;49.296;14.470;2024-03-06T08:42:37;72;59;
47079;PMS5003;33067;49.296;14.470;2024-03-06T08:45:03;77;74;
47079;PMS5003;33067;49.296;14.470;2024-03-06T08:47:28;57;50;
47079;PMS5003;33067;49.296;14.470;2024-03-06T08:49:53;62;55;
47079;PMS5003;33067;49.296;14.470;2024-03-06T08:52:19;65;59;
47079;PMS5003;33067;49.296;14.470;2024-03-06T08:54:44;90;83;
47079;PMS5003;33067;49.296;14.470;2024-03-06T08:57:09;74;63;
47079;PMS5003;33067;49.296;14.470;2024-03-06T08:59:35;82;72;
47079;PMS5003;33067;49.296;14.470;2024-03-06T09:02:11;77;66;
47079;PMS5003;33067;49.296;14.470;2024-03-06T09:04:25;60;50;
47079;PMS5003;33067;49.296;14.470;2024-03-06T09:06:50;75;68;
47079;PMS5003;33067;49.296;14.470;2024-03-06T09:09:16;76;74;
47079;PMS5003;33067;49.296;14.470;2024-03-06T09:16:32;63;56;
47079;PMS5003;33067;49.296;14.470;2024-03-06T09:21:23;66;60;
47079;PMS5003;33067;49.296;14.470;2024-03-06T09:26:14;69;62;
47079;PMS5003;33067;49.296;14.470;2024-03-06T09:28:39;81;70;
47079;PMS5003;33067;49.296;14.470;2024-03-06T09:31:04;88;83;
47079;PMS5003;33067;49.296;14.470;2024-03-06T09:33:29;61;53;
47079;PMS5003;33067;49.296;14.470;2024-03-06T09:35:55;63;59;
47079;PMS5003;33067;49.296;14.470;2024-03-06T09:38:20;90;84;
47079;PMS5003;33067;49.296;14.470;2024-03-06T09:40:47;74;67;
47079;PMS5003;33067;49.296;14.470;2024-03-06T09:43:12;83;74;
47079;PMS5003;33067;49.296;14.470;2024-03-06T09:45:37;74;70;
47079;PMS5003;33067;49.296;14.470;2024-03-06T09:48:03;84;78;
47079;PMS5003;33067;49.296;14.470;2024-03-06T09:50:28;83;74;
47079;PMS5003;33067;49.296;14.470;2024-03-06T09:52:54;75;70;
47079;PMS5003;33067;49.296;14.470;2024-03-06T09:55:19;64;61;
47079;PMS5003;33067;49.296;14.470;2024-03-06T09:57:45;75;67;
47079;PMS5003;33067;49.296;14.470;2024-03-06T10:00:10;56;54;
47079;PMS5003;33067;49.296;14.470;2024-03-06T10:02:37;73;63;
47079;PMS5003;33067;49.296;14.470;2024-03-06T10:05:02;76;74;
47079;PMS5003;33067;49.296;14.470;2024-03-06T10:07:26;80;72;
47079;PMS5003;33067;49.296;14.470;2024-03-06T10:09:52;69;61;
47079;PMS5003;33067;49.296;14.470;2024-03-06T10:12:17;78;69;
47079;PMS5003;33067;49.296;14.470;2024-03-06T10:17:07;64;58;
47079;PMS5003;33067;49.296;14.470;2024-03-06T10:19:32;71;60;
47079;PMS5003;33067;49.296;14.470;2024-03-06T10:21:58;66;61;
47079;PMS5003;33067;49.296;14.470;2024-03-06T10:24:25;61;55;
47079;PMS5003;33067;49.296;14.470;2024-03-06T10:26:50;78;61;
47079;PMS5003;33067;49.296;14.470;2024-03-06T10:29:16;64;57;
47079;PMS5003;33067;49.296;14.470;2024-03-06T10:31:41;58;50;
47079;PMS5003;33067;49.296;14.470;2024-03-06T10:34:06;62;58;
47079;PMS5003;33067;49.296;14.470;2024-03-06T10:36:32;64;62;
47079;PMS5003;33067;49.296;14.470;2024-03-06T10:38:57;59;51;
47079;PMS5003;33067;49.296;14.470;2024-03-06T10:41:23;83;72;
47079;PMS5003;33067;49.296;14.470;2024-03-06T10:43:48;92;78;
47079;PMS5003;33067;49.296;14.470;2024-03-06T10:46:14;80;70;
47079;PMS5003;33067;49.296;14.470;2024-03-06T10:48:39;79;67;
47079;PMS5003;33067;49.296;14.470;2024-03-06T10:51:05;69;62;
47079;PMS5003;33067;49.296;14.470;2024-03-06T10:53:31;63;57;
47079;PMS5003;33067;49.296;14.470;2024-03-06T10:55:56;60;53;
47079;PMS5003;33067;49.296;14.470;2024-03-06T10:58:21;53;49;
47079;PMS5003;33067;49.296;14.470;2024-03-06T11:00:47;69;56;
47079;PMS5003;33067;49.296;14.470;2024-03-06T11:03:12;59;52;
47079;PMS5003;33067;49.296;14.470;2024-03-06T11:05:37;64;61;
47079;PMS5003;33067;49.296;14.470;2024-03-06T11:08:03;67;62;
47079;PMS5003;33067;49.296;14.470;2024-03-06T11:10:30;77;62;
47079;PMS5003;33067;49.296;14.470;2024-03-06T11:12:54;69;63;
47079;PMS5003;33067;49.296;14.470;2024-03-06T11:15:20;132;112;
47079;PMS5003;33067;49.296;14.470;2024-03-06T11:17:45;72;64;
47079;PMS5003;33067;49.296;14.470;2024-03-06T11:20:13;76;71;
47079;PMS5003;33067;49.296;14.470;2024-03-06T11:25:02;66;57;
47079;PMS5003;33067;49.296;14.470;2024-03-06T11:27:27;63;55;
47079;PMS5003;33067;49.296;14.470;2024-03-06T11:32:20;57;52;
47079;PMS5003;33067;49.296;14.470;2024-03-06T11:34:44;57;52;
47079;PMS5003;33067;49.296;14.470;2024-03-06T11:37:09;58;51;
47079;PMS5003;33067;49.296;14.470;2024-03-06T11:39:35;63;57;
47079;PMS5003;33067;49.296;14.470;2024-03-06T11:42:01;61;57;
47079;PMS5003;33067;49.296;14.470;2024-03-06T11:44:26;57;53;
47079;PMS5003;33067;49.296;14.470;2024-03-06T11:46:57;63;54;
47079;PMS5003;33067;49.296;14.470;2024-03-06T11:49:17;75;67;
47079;PMS5003;33067;49.296;14.470;2024-03-06T11:51:42;74;63;
47079;PMS5003;33067;49.296;14.470;2024-03-06T11:54:07;69;64;
47079;PMS5003;33067;49.296;14.470;2024-03-06T11:56:32;55;47;
47079;PMS5003;33067;49.296;14.470;2024-03-06T11:58:58;55;48;
47079;PMS5003;33067;49.296;14.470;2024-03-06T12:01:23;49;44;
47079;PMS5003;33067;49.296;14.470;2024-03-06T12:03:48;48;44;
47079;PMS5003;33067;49.296;14.470;2024-03-06T12:06:14;49;45;
47079;PMS5003;33067;49.296;14.470;2024-03-06T12:08:40;57;49;
47079;PMS5003;33067;49.296;14.470;2024-03-06T12:11:06;54;44;
47079;PMS5003;33067;49.296;14.470;2024-03-06T12:13:31;65;62;
47079;PMS5003;33067;49.296;14.470;2024-03-06T12:15:56;86;80;
47079;PMS5003;33067;49.296;14.470;2024-03-06T12:18:22;57;55;
47079;PMS5003;33067;49.296;14.470;2024-03-06T12:20:49;52;50;
47079;PMS5003;33067;49.296;14.470;2024-03-06T12:23:20;44;42;
47079;PMS5003;33067;49.296;14.470;2024-03-06T12:25:38;55;54;
47079;PMS5003;33067;49.296;14.470;2024-03-06T12:28:06;51;46;
47079;PMS5003;33067;49.296;14.470;2024-03-06T12:30:29;48;47;
47079;PMS5003;33067;49.296;14.470;2024-03-06T12:32:56;48;45;
47079;PMS5003;33067;49.296;14.470;2024-03-06T12:35:23;55;46;
47079;PMS5003;33067;49.296;14.470;2024-03-06T12:37:46;59;51;
47079;PMS5003;33067;49.296;14.470;2024-03-06T12:40:11;65;47;
47079;PMS5003;33067;49.296;14.470;2024-03-06T12:42:36;49;44;
47079;PMS5003;33067;49.296;14.470;2024-03-06T12:45:02;47;40;
47079;PMS5003;33067;49.296;14.470;2024-03-06T12:47:27;52;50;
47079;PMS5003;33067;49.296;14.470;2024-03-06T12:49:52;50;49;
47079;PMS5003;33067;49.296;14.470;2024-03-06T12:52:18;48;44;
47079;PMS5003;33067;49.296;14.470;2024-03-06T12:54:43;55;46;
47079;PMS5003;33067;49.296;14.470;2024-03-06T12:57:09;56;55;
47079;PMS5003;33067;49.296;14.470;2024-03-06T12:59:35;83;72;
47079;PMS5003;33067;49.296;14.470;2024-03-06T13:02:00;66;59;
47079;PMS5003;33067;49.296;14.470;2024-03-06T13:04:26;54;52;
47079;PMS5003;33067;49.296;14.470;2024-03-06T13:06:51;83;80;
47079;PMS5003;33067;49.296;14.470;2024-03-06T13:09:17;87;83;
47079;PMS5003;33067;49.296;14.470;2024-03-06T13:11:42;47;45;
47079;PMS5003;33067;49.296;14.470;2024-03-06T13:14:07;58;49;
47079;PMS5003;33067;49.296;14.470;2024-03-06T13:16:33;52;49;
47079;PMS5003;33067;49.296;14.470;2024-03-06T13:18:59;55;48;
47079;PMS5003;33067;49.296;14.470;2024-03-06T13:21:24;54;49;
47079;PMS5003;33067;49.296;14.470;2024-03-06T13:23:50;57;54;
47079;PMS5003;33067;49.296;14.470;2024-03-06T13:26:15;53;43;
47079;PMS5003;33067;49.296;14.470;2024-03-06T13:28:41;52;47;
47079;PMS5003;33067;49.296;14.470;2024-03-06T13:31:06;70;64;
47079;PMS5003;33067;49.296;14.470;2024-03-06T13:33:32;77;62;
47079;PMS5003;33067;49.296;14.470;2024-03-06T13:35:57;45;41;
47079;PMS5003;33067;49.296;14.470;2024-03-06T13:38:22;50;45;
47079;PMS5003;33067;49.296;14.470;2024-03-06T13:40:47;76;62;
47079;PMS5003;33067;49.296;14.470;2024-03-06T13:43:13;56;54;
47079;PMS5003;33067;49.296;14.470;2024-03-06T13:45:39;62;59;
47079;PMS5003;33067;49.296;14.470;2024-03-06T13:48:13;63;54;
47079;PMS5003;33067;49.296;14.470;2024-03-06T13:50:29;75;72;
47079;PMS5003;33067;49.296;14.470;2024-03-06T13:52:55;65;62;
47079;PMS5003;33067;49.296;14.470;2024-03-06T13:55:21;91;87;
47079;PMS5003;33067;49.296;14.470;2024-03-06T13:57:46;64;62;
47079;PMS5003;33067;49.296;14.470;2024-03-06T14:00:12;75;67;
47079;PMS5003;33067;49.296;14.470;2024-03-06T14:02:38;100;92;
47079;PMS5003;33067;49.296;14.470;2024-03-06T14:05:03;92;86;
47079;PMS5003;33067;49.296;14.470;2024-03-06T14:07:28;92;74;
47079;PMS5003;33067;49.296;14.470;2024-03-06T14:09:54;72;67;
47079;PMS5003;33067;49.296;14.470;2024-03-06T14:12:19;79;74;
47079;PMS5003;33067;49.296;14.470;2024-03-06T14:14:44;59;54;
47079;PMS5003;33067;49.296;14.470;2024-03-06T14:17:10;80;72;
47079;PMS5003;33067;49.296;14.470;2024-03-06T14:19:36;73;64;
47079;PMS5003;33067;49.296;14.470;2024-03-06T14:22:01;93;82;
47079;PMS5003;33067;49.296;14.470;2024-03-06T14:24:27;78;67;
47079;PMS5003;33067;49.296;14.470;2024-03-06T14:26:52;65;59;
47079;PMS5003;33067;49.296;14.470;2024-03-06T14:29:20;52;50;
47079;PMS5003;33067;49.296;14.470;2024-03-06T14:31:42;78;74;
47079;PMS5003;33067;49.296;14.470;2024-03-06T14:34:08;69;66;
47079;PMS5003;33067;49.296;14.470;2024-03-06T14:36:33;94;84;
47079;PMS5003;33067;49.296;14.470;2024-03-06T14:38:59;98;90;
47079;PMS5003;33067;49.296;14.470;2024-03-06T14:41:24;93;91;
47079;PMS5003;33067;49.296;14.470;2024-03-06T14:43:49;56;53;
47079;PMS5003;33067;49.296;14.470;2024-03-06T14:46:15;125;121;
47079;PMS5003;33067;49.296;14.470;2024-03-06T14:48:40;102;97;
47079;PMS5003;33067;49.296;14.470;2024-03-06T14:51:06;118;110;
47079;PMS5003;33067;49.296;14.470;2024-03-06T14:53:31;88;86;
47079;PMS5003;33067;49.296;14.470;2024-03-06T14:55:57;80;74;
47079;PMS5003;33067;49.296;14.470;2024-03-06T14:58:22;75;65;
47079;PMS5003;33067;49.296;14.470;2024-03-06T15:00:48;79;70;
47079;PMS5003;33067;49.296;14.470;2024-03-06T15:03:13;79;68;
47079;PMS5003;33067;49.296;14.470;2024-03-06T15:05:38;66;65;
47079;PMS5003;33067;49.296;14.470;2024-03-06T15:08:05;78;69;
47079;PMS5003;33067;49.296;14.470;2024-03-06T15:10:30;92;85;
47079;PMS5003;33067;49.296;14.470;2024-03-06T15:12:55;86;79;
47079;PMS5003;33067;49.296;14.470;2024-03-06T15:15:21;90;83;
47079;PMS5003;33067;49.296;14.470;2024-03-06T15:17:46;80;76;
47079;PMS5003;33067;49.296;14.470;2024-03-06T15:20:11;79;72;
47079;PMS5003;33067;49.296;14.470;2024-03-06T15:22:37;81;68;
47079;PMS5003;33067;49.296;14.470;2024-03-06T15:25:03;85;78;
47079;PMS5003;33067;49.296;14.470;2024-03-06T15:27:28;72;67;
47079;PMS5003;33067;49.296;14.470;2024-03-06T15:29:54;85;78;
47079;PMS5003;33067;49.296;14.470;2024-03-06T15:32:21;89;80;
47079;PMS5003;33067;49.296;14.470;2024-03-06T15:34:44;79;78;
47079;PMS5003;33067;49.296;14.470;2024-03-06T15:37:10;91;78;
47079;PMS5003;33067;49.296;14.470;2024-03-06T15:39:36;80;71;
47079;PMS5003;33067;49.296;14.470;2024-03-06T15:42:02;95;79;
47079;PMS5003;33067;49.296;14.470;2024-03-06T15:44:27;74;68;
47079;PMS5003;33067;49.296;14.470;2024-03-06T15:46:52;100;87;
47079;PMS5003;33067;49.296;14.470;2024-03-06T15:49:19;98;90;
47079;PMS5003;33067;49.296;14.470;2024-03-06T15:51:43;88;83;
47079;PMS5003;33067;49.296;14.470;2024-03-06T15:54:09;90;76;
47079;PMS5003;33067;49.296;14.470;2024-03-06T15:56:34;96;85;
47079;PMS5003;33067;49.296;14.470;2024-03-06T15:58:59;82;80;
47079;PMS5003;33067;49.296;14.470;2024-03-06T16:01:25;78;72;
47079;PMS5003;33067;49.296;14.470;2024-03-06T16:03:51;89;82;
47079;PMS5003;33067;49.296;14.470;2024-03-06T16:06:16;93;83;
47079;PMS5003;33067;49.296;14.470;2024-03-06T16:08:41;91;84;